sensor_id;sensor_type;location;lat;lon;timestamp;pressure;altitude;pressure_sealevel;temperature;humidity
79586;BME280;69054;50.866;4.636;2023-04-24T00:02:09;99846.91;;;7.94;86.19
79586;BME280;69054;50.866;4.636;2023-04-24T00:04:37;99845.03;;;7.94;86.08
79586;BME280;69054;50.866;4.636;2023-04-24T00:07:06;99835.00;;;7.95;86.03
79586;BME280;69054;50.866;4.636;2023-04-24T00:09:32;99842.56;;;7.99;86.03
79586;BME280;69054;50.866;4.636;2023-04-24T00:11:58;99839.63;;;8.01;85.63
79586;BME280;69054;50.866;4.636;2023-04-24T00:14:23;99827.69;;;8.02;85.19
79586;BME280;69054;50.866;4.636;2023-04-24T00:16:49;99843.59;;;7.98;86.20
79586;BME280;69054;50.866;4.636;2023-04-24T00:19:14;99844.81;;;7.96;85.91
79586;BME280;69054;50.866;4.636;2023-04-24T00:21:40;99835.84;;;7.95;86.12
79586;BME280;69054;50.866;4.636;2023-04-24T00:24:06;99843.72;;;7.84;86.64
79586;BME280;69054;50.866;4.636;2023-04-24T00:26:34;99844.28;;;7.72;86.62
79586;BME280;69054;50.866;4.636;2023-04-24T00:28:59;99845.53;;;7.70;86.80
79586;BME280;69054;50.866;4.636;2023-04-24T00:31:25;99845.13;;;7.73;86.27
79586;BME280;69054;50.866;4.636;2023-04-24T00:33:50;99852.69;;;7.77;86.58
79586;BME280;69054;50.866;4.636;2023-04-24T00:36:16;99849.56;;;7.80;87.68
79586;BME280;69054;50.866;4.636;2023-04-24T00:38:41;99854.72;;;7.69;88.70
79586;BME280;69054;50.866;4.636;2023-04-24T00:41:07;99853.38;;;7.58;90.59
79586;BME280;69054;50.866;4.636;2023-04-24T00:43:32;99862.34;;;7.52;90.18
79586;BME280;69054;50.866;4.636;2023-04-24T00:45:58;99847.47;;;7.47;90.95
79586;BME280;69054;50.866;4.636;2023-04-24T00:48:25;99851.63;;;7.43;90.00
79586;BME280;69054;50.866;4.636;2023-04-24T00:50:50;99856.22;;;7.43;90.19
79586;BME280;69054;50.866;4.636;2023-04-24T00:53:16;99854.56;;;7.42;89.94
79586;BME280;69054;50.866;4.636;2023-04-24T00:55:41;99858.94;;;7.43;89.39
79586;BME280;69054;50.866;4.636;2023-04-24T00:58:07;99858.50;;;7.39;89.69
79586;BME280;69054;50.866;4.636;2023-04-24T01:00:33;99854.94;;;7.39;90.19
79586;BME280;69054;50.866;4.636;2023-04-24T01:02:59;99858.09;;;7.42;89.74
79586;BME280;69054;50.866;4.636;2023-04-24T01:05:27;99854.09;;;7.38;89.93
79586;BME280;69054;50.866;4.636;2023-04-24T01:07:52;99854.56;;;7.42;89.45
79586;BME280;69054;50.866;4.636;2023-04-24T01:10:18;99855.97;;;7.38;89.47
79586;BME280;69054;50.866;4.636;2023-04-24T01:12:46;99850.13;;;7.41;89.15
79586;BME280;69054;50.866;4.636;2023-04-24T01:15:11;99846.78;;;7.39;88.94
79586;BME280;69054;50.866;4.636;2023-04-24T01:17:37;99849.31;;;7.40;88.66
79586;BME280;69054;50.866;4.636;2023-04-24T01:20:04;99856.00;;;7.44;88.47
79586;BME280;69054;50.866;4.636;2023-04-24T01:22:30;99854.59;;;7.49;88.81
79586;BME280;69054;50.866;4.636;2023-04-24T01:24:56;99844.53;;;7.49;88.88
79586;BME280;69054;50.866;4.636;2023-04-24T01:27:22;99841.63;;;7.51;88.25
79586;BME280;69054;50.866;4.636;2023-04-24T01:29:47;99851.06;;;7.55;87.86
79586;BME280;69054;50.866;4.636;2023-04-24T01:32:14;99844.13;;;7.52;88.23
79586;BME280;69054;50.866;4.636;2023-04-24T01:34:40;99843.31;;;7.52;88.68
79586;BME280;69054;50.866;4.636;2023-04-24T01:37:06;99848.72;;;7.45;89.30
79586;BME280;69054;50.866;4.636;2023-04-24T01:39:31;99849.94;;;7.42;88.88
79586;BME280;69054;50.866;4.636;2023-04-24T01:41:59;99851.97;;;7.34;89.25
79586;BME280;69054;50.866;4.636;2023-04-24T01:44:26;99850.66;;;7.29;89.96
79586;BME280;69054;50.866;4.636;2023-04-24T01:46:51;99853.16;;;7.24;90.62
79586;BME280;69054;50.866;4.636;2023-04-24T01:49:19;99853.94;;;7.18;91.07
79586;BME280;69054;50.866;4.636;2023-04-24T01:51:45;99850.97;;;7.13;90.38
79586;BME280;69054;50.866;4.636;2023-04-24T01:54:11;99850.72;;;7.08;90.43
79586;BME280;69054;50.866;4.636;2023-04-24T01:56:41;99853.38;;;7.01;90.92
79586;BME280;69054;50.866;4.636;2023-04-24T01:59:09;99860.28;;;7.04;89.90
79586;BME280;69054;50.866;4.636;2023-04-24T02:01:36;99848.13;;;7.00;90.98
79586;BME280;69054;50.866;4.636;2023-04-24T02:04:03;99858.81;;;7.01;90.59
79586;BME280;69054;50.866;4.636;2023-04-24T02:06:28;99870.06;;;6.98;90.65
79586;BME280;69054;50.866;4.636;2023-04-24T02:08:54;99859.59;;;6.95;90.60
79586;BME280;69054;50.866;4.636;2023-04-24T02:11:19;99865.69;;;7.04;90.85
79586;BME280;69054;50.866;4.636;2023-04-24T02:13:44;99858.03;;;7.07;91.27
79586;BME280;69054;50.866;4.636;2023-04-24T02:16:10;99863.00;;;7.04;91.67
79586;BME280;69054;50.866;4.636;2023-04-24T02:18:36;99854.22;;;7.02;91.71
79586;BME280;69054;50.866;4.636;2023-04-24T02:21:01;99861.56;;;7.08;91.14
79586;BME280;69054;50.866;4.636;2023-04-24T02:23:26;99859.69;;;7.08;91.35
79586;BME280;69054;50.866;4.636;2023-04-24T02:25:52;99859.97;;;7.14;91.85
79586;BME280;69054;50.866;4.636;2023-04-24T02:28:18;99869.31;;;7.11;91.41
79586;BME280;69054;50.866;4.636;2023-04-24T02:30:44;99856.78;;;7.10;91.22
79586;BME280;69054;50.866;4.636;2023-04-24T02:33:09;99859.50;;;7.10;91.23
79586;BME280;69054;50.866;4.636;2023-04-24T02:35:35;99863.91;;;7.11;92.36
79586;BME280;69054;50.866;4.636;2023-04-24T02:38:00;99854.25;;;7.08;91.53
79586;BME280;69054;50.866;4.636;2023-04-24T02:40:25;99858.66;;;7.09;91.55
79586;BME280;69054;50.866;4.636;2023-04-24T02:42:51;99864.91;;;7.10;91.89
79586;BME280;69054;50.866;4.636;2023-04-24T02:45:16;99868.03;;;7.07;91.14
79586;BME280;69054;50.866;4.636;2023-04-24T02:47:42;99869.28;;;7.04;92.21
79586;BME280;69054;50.866;4.636;2023-04-24T02:50:07;99869.69;;;7.01;92.42
79586;BME280;69054;50.866;4.636;2023-04-24T02:52:33;99871.13;;;7.04;91.82
79586;BME280;69054;50.866;4.636;2023-04-24T02:54:58;99869.69;;;7.01;92.30
79586;BME280;69054;50.866;4.636;2023-04-24T02:57:24;99875.50;;;6.98;93.04
79586;BME280;69054;50.866;4.636;2023-04-24T02:59:49;99870.44;;;6.95;92.99
79586;BME280;69054;50.866;4.636;2023-04-24T03:02:14;99862.50;;;6.93;92.63
79586;BME280;69054;50.866;4.636;2023-04-24T03:04:41;99860.81;;;6.92;93.18
79586;BME280;69054;50.866;4.636;2023-04-24T03:07:08;99864.56;;;6.91;92.52
79586;BME280;69054;50.866;4.636;2023-04-24T03:09:33;99877.50;;;6.89;93.43
79586;BME280;69054;50.866;4.636;2023-04-24T03:11:58;99869.16;;;6.91;93.19
79586;BME280;69054;50.866;4.636;2023-04-24T03:14:24;99870.84;;;6.92;92.35
79586;BME280;69054;50.866;4.636;2023-04-24T03:16:50;99865.31;;;6.85;92.87
79586;BME280;69054;50.866;4.636;2023-04-24T03:19:15;99874.16;;;6.87;92.93
79586;BME280;69054;50.866;4.636;2023-04-24T03:21:41;99869.16;;;6.91;92.35
79586;BME280;69054;50.866;4.636;2023-04-24T03:24:09;99869.97;;;6.91;92.59
79586;BME280;69054;50.866;4.636;2023-04-24T03:26:35;99873.38;;;6.93;92.59
79586;BME280;69054;50.866;4.636;2023-04-24T03:29:00;99870.25;;;6.97;91.84
79586;BME280;69054;50.866;4.636;2023-04-24T03:31:26;99873.38;;;6.93;92.27
79586;BME280;69054;50.866;4.636;2023-04-24T03:33:51;99874.78;;;6.89;92.91
79586;BME280;69054;50.866;4.636;2023-04-24T03:36:17;99875.59;;;6.90;92.94
79586;BME280;69054;50.866;4.636;2023-04-24T03:38:44;99877.94;;;6.93;93.21
79586;BME280;69054;50.866;4.636;2023-04-24T03:41:10;99875.59;;;6.90;93.26
79586;BME280;69054;50.866;4.636;2023-04-24T03:43:35;99875.81;;;6.88;93.25
79586;BME280;69054;50.866;4.636;2023-04-24T03:46:01;99877.41;;;6.83;93.75
79586;BME280;69054;50.866;4.636;2023-04-24T03:48:26;99879.56;;;6.87;93.78
79586;BME280;69054;50.866;4.636;2023-04-24T03:50:52;99885.19;;;6.86;94.53
79586;BME280;69054;50.866;4.636;2023-04-24T03:53:17;99888.06;;;6.84;94.52
79586;BME280;69054;50.866;4.636;2023-04-24T03:55:43;99899.41;;;6.88;94.38
79586;BME280;69054;50.866;4.636;2023-04-24T03:58:08;99909.81;;;6.84;94.87
79586;BME280;69054;50.866;4.636;2023-04-24T04:00:34;99912.16;;;6.87;94.62
79586;BME280;69054;50.866;4.636;2023-04-24T04:02:59;99906.94;;;6.86;94.19
79586;BME280;69054;50.866;4.636;2023-04-24T04:05:25;99912.16;;;6.87;94.50
79586;BME280;69054;50.866;4.636;2023-04-24T04:07:50;99917.59;;;6.87;94.79
79586;BME280;69054;50.866;4.636;2023-04-24T04:10:16;99925.56;;;6.89;94.81
79586;BME280;69054;50.866;4.636;2023-04-24T04:12:42;99919.06;;;6.90;95.47
79586;BME280;69054;50.866;4.636;2023-04-24T04:15:07;99924.50;;;6.90;94.98
79586;BME280;69054;50.866;4.636;2023-04-24T04:17:33;99926.38;;;6.89;94.84
79586;BME280;69054;50.866;4.636;2023-04-24T04:19:58;99933.31;;;6.92;95.03
79586;BME280;69054;50.866;4.636;2023-04-24T04:22:24;99925.81;;;6.94;94.42
79586;BME280;69054;50.866;4.636;2023-04-24T04:24:49;99941.66;;;6.90;94.81
79586;BME280;69054;50.866;4.636;2023-04-24T04:27:16;99942.94;;;6.95;94.22
79586;BME280;69054;50.866;4.636;2023-04-24T04:29:41;99948.56;;;6.93;94.70
79586;BME280;69054;50.866;4.636;2023-04-24T04:32:07;99944.81;;;6.94;94.67
79586;BME280;69054;50.866;4.636;2023-04-24T04:34:32;99946.88;;;6.92;94.75
79586;BME280;69054;50.866;4.636;2023-04-24T04:36:58;99950.69;;;6.98;94.10
79586;BME280;69054;50.866;4.636;2023-04-24T04:39:26;99949.03;;;6.97;94.25
79586;BME280;69054;50.866;4.636;2023-04-24T04:41:53;99949.66;;;6.99;93.52
79586;BME280;69054;50.866;4.636;2023-04-24T04:44:19;99958.84;;;6.98;93.70
79586;BME280;69054;50.866;4.636;2023-04-24T04:46:44;99963.25;;;6.99;93.93
79586;BME280;69054;50.866;4.636;2023-04-24T04:49:10;99976.25;;;7.03;93.30
79586;BME280;69054;50.866;4.636;2023-04-24T04:51:36;99968.28;;;7.02;92.66
79586;BME280;69054;50.866;4.636;2023-04-24T04:54:02;99977.03;;;6.97;93.55
79586;BME280;69054;50.866;4.636;2023-04-24T04:56:27;99987.06;;;6.97;92.65
79586;BME280;69054;50.866;4.636;2023-04-24T04:58:52;99994.91;;;6.91;93.30
79586;BME280;69054;50.866;4.636;2023-04-24T05:01:18;100005.78;;;6.91;93.21
79586;BME280;69054;50.866;4.636;2023-04-24T05:03:44;100010.38;;;6.91;93.52
79586;BME280;69054;50.866;4.636;2023-04-24T05:06:09;100017.50;;;6.92;92.84
79586;BME280;69054;50.866;4.636;2023-04-24T05:08:35;100021.63;;;6.88;92.99
79586;BME280;69054;50.866;4.636;2023-04-24T05:11:00;100027.44;;;6.85;92.91
79586;BME280;69054;50.866;4.636;2023-04-24T05:13:26;100029.97;;;6.86;93.53
79586;BME280;69054;50.866;4.636;2023-04-24T05:15:53;100046.25;;;6.86;93.76
79586;BME280;69054;50.866;4.636;2023-04-24T05:18:18;100046.66;;;6.83;93.28
79586;BME280;69054;50.866;4.636;2023-04-24T05:20:43;100056.09;;;6.87;92.74
79586;BME280;69054;50.866;4.636;2023-04-24T05:23:10;100050.38;;;6.82;93.62
79586;BME280;69054;50.866;4.636;2023-04-24T05:25:36;100060.22;;;6.83;93.92
79586;BME280;69054;50.866;4.636;2023-04-24T05:28:03;100065.84;;;6.82;93.94
79586;BME280;69054;50.866;4.636;2023-04-24T05:30:29;100069.19;;;6.84;93.01
79586;BME280;69054;50.866;4.636;2023-04-24T05:32:55;100076.53;;;6.83;93.17
79586;BME280;69054;50.866;4.636;2023-04-24T05:35:20;100083.34;;;6.79;93.35
79586;BME280;69054;50.866;4.636;2023-04-24T05:37:46;100094.84;;;6.81;93.09
79586;BME280;69054;50.866;4.636;2023-04-24T05:40:11;100101.78;;;6.84;92.99
79586;BME280;69054;50.866;4.636;2023-04-24T05:42:37;100102.16;;;6.81;93.15
79586;BME280;69054;50.866;4.636;2023-04-24T05:45:03;100110.69;;;6.78;92.73
79586;BME280;69054;50.866;4.636;2023-04-24T05:47:29;100110.41;;;6.72;92.98
79586;BME280;69054;50.866;4.636;2023-04-24T05:49:54;100110.41;;;6.72;92.11
79586;BME280;69054;50.866;4.636;2023-04-24T05:52:20;100120.78;;;6.69;92.69
79586;BME280;69054;50.866;4.636;2023-04-24T05:54:45;100115.56;;;6.67;92.35
79586;BME280;69054;50.866;4.636;2023-04-24T05:57:11;100127.47;;;6.66;92.43
79586;BME280;69054;50.866;4.636;2023-04-24T05:59:37;100131.84;;;6.67;92.95
79586;BME280;69054;50.866;4.636;2023-04-24T06:02:03;100139.16;;;6.67;93.27
79586;BME280;69054;50.866;4.636;2023-04-24T06:04:29;100140.84;;;6.68;93.20
79586;BME280;69054;50.866;4.636;2023-04-24T06:06:54;100143.56;;;6.68;92.53
79586;BME280;69054;50.866;4.636;2023-04-24T06:09:22;100148.50;;;6.64;93.58
79586;BME280;69054;50.866;4.636;2023-04-24T06:11:48;100143.06;;;6.64;93.13
79586;BME280;69054;50.866;4.636;2023-04-24T06:14:14;100152.09;;;6.65;93.45
79586;BME280;69054;50.866;4.636;2023-04-24T06:16:42;100152.09;;;6.65;93.71
79586;BME280;69054;50.866;4.636;2023-04-24T06:19:08;100156.66;;;6.64;94.42
79586;BME280;69054;50.866;4.636;2023-04-24T06:21:33;100164.25;;;6.69;94.24
79586;BME280;69054;50.866;4.636;2023-04-24T06:23:58;100164.41;;;6.67;94.02
79586;BME280;69054;50.866;4.636;2023-04-24T06:26:24;100173.88;;;6.71;93.43
79586;BME280;69054;50.866;4.636;2023-04-24T06:28:52;100174.72;;;6.72;93.03
79586;BME280;69054;50.866;4.636;2023-04-24T06:31:19;100184.56;;;6.73;93.69
79586;BME280;69054;50.866;4.636;2023-04-24T06:33:44;100181.47;;;6.76;93.03
79586;BME280;69054;50.866;4.636;2023-04-24T06:36:10;100188.41;;;6.79;92.76
79586;BME280;69054;50.866;4.636;2023-04-24T06:38:35;100206.56;;;6.78;92.58
79586;BME280;69054;50.866;4.636;2023-04-24T06:41:01;100207.91;;;6.82;93.19
79586;BME280;69054;50.866;4.636;2023-04-24T06:43:30;100203.09;;;6.84;92.88
79586;BME280;69054;50.866;4.636;2023-04-24T06:45:56;100210.91;;;6.87;93.03
79586;BME280;69054;50.866;4.636;2023-04-24T06:48:22;100205.47;;;6.87;92.56
79586;BME280;69054;50.866;4.636;2023-04-24T06:50:47;100223.06;;;6.91;92.98
79586;BME280;69054;50.866;4.636;2023-04-24T06:53:13;100218.50;;;6.92;92.34
79586;BME280;69054;50.866;4.636;2023-04-24T06:55:39;100210.34;;;6.92;92.08
79586;BME280;69054;50.866;4.636;2023-04-24T06:58:05;100222.69;;;6.95;92.93
79586;BME280;69054;50.866;4.636;2023-04-24T07:00:31;100229.38;;;6.92;93.58
79586;BME280;69054;50.866;4.636;2023-04-24T07:02:56;100237.41;;;7.00;93.26
79586;BME280;69054;50.866;4.636;2023-04-24T07:05:22;100232.94;;;7.07;92.53
79586;BME280;69054;50.866;4.636;2023-04-24T07:07:48;100240.91;;;7.09;92.10
79586;BME280;69054;50.866;4.636;2023-04-24T07:10:16;100243.25;;;7.12;92.32
79586;BME280;69054;50.866;4.636;2023-04-24T07:12:42;100254.38;;;7.17;92.35
79586;BME280;69054;50.866;4.636;2023-04-24T07:15:08;100251.88;;;7.31;92.18
79586;BME280;69054;50.866;4.636;2023-04-24T07:17:34;100255.91;;;7.35;91.33
79586;BME280;69054;50.866;4.636;2023-04-24T07:20:00;100268.75;;;7.41;91.79
79586;BME280;69054;50.866;4.636;2023-04-24T07:22:25;100264.81;;;7.43;91.87
79586;BME280;69054;50.866;4.636;2023-04-24T07:24:52;100275.69;;;7.43;91.45
79586;BME280;69054;50.866;4.636;2023-04-24T07:27:17;100270.91;;;7.45;90.82
79586;BME280;69054;50.866;4.636;2023-04-24T07:29:43;100282.97;;;7.43;91.00
79586;BME280;69054;50.866;4.636;2023-04-24T07:32:09;100280.63;;;7.40;91.16
79586;BME280;69054;50.866;4.636;2023-04-24T07:34:35;100284.41;;;7.39;92.21
79586;BME280;69054;50.866;4.636;2023-04-24T07:37:00;100295.28;;;7.39;91.42
79586;BME280;69054;50.866;4.636;2023-04-24T07:39:26;100299.22;;;7.36;92.15
79586;BME280;69054;50.866;4.636;2023-04-24T07:41:51;100301.81;;;7.29;91.30
79586;BME280;69054;50.866;4.636;2023-04-24T07:44:17;100307.25;;;7.29;91.60
79586;BME280;69054;50.866;4.636;2023-04-24T07:46:42;100314.28;;;7.24;90.43
79586;BME280;69054;50.866;4.636;2023-04-24T07:49:08;100307.91;;;7.17;91.69
79586;BME280;69054;50.866;4.636;2023-04-24T07:51:33;100321.84;;;7.14;91.57
79586;BME280;69054;50.866;4.636;2023-04-24T07:54:04;100315.88;;;7.18;91.48
79586;BME280;69054;50.866;4.636;2023-04-24T07:56:31;100326.81;;;7.25;92.42
79586;BME280;69054;50.866;4.636;2023-04-24T07:58:57;100328.63;;;7.33;90.85
79586;BME280;69054;50.866;4.636;2023-04-24T08:01:22;100325.91;;;7.47;90.19
79586;BME280;69054;50.866;4.636;2023-04-24T08:03:47;100326.69;;;7.71;89.63
79586;BME280;69054;50.866;4.636;2023-04-24T08:06:13;100334.44;;;8.04;88.85
79586;BME280;69054;50.866;4.636;2023-04-24T08:08:38;100340.28;;;8.38;87.71
79586;BME280;69054;50.866;4.636;2023-04-24T08:11:04;100342.81;;;8.76;86.95
79586;BME280;69054;50.866;4.636;2023-04-24T08:13:29;100358.53;;;9.23;84.27
79586;BME280;69054;50.866;4.636;2023-04-24T08:15:56;100357.75;;;9.30;84.51
79586;BME280;69054;50.866;4.636;2023-04-24T08:18:23;100352.44;;;9.50;82.78
79586;BME280;69054;50.866;4.636;2023-04-24T08:20:48;100356.81;;;9.79;83.31
79586;BME280;69054;50.866;4.636;2023-04-24T08:23:13;100351.56;;;10.26;79.88
79586;BME280;69054;50.866;4.636;2023-04-24T08:25:39;100367.91;;;9.71;79.95
79586;BME280;69054;50.866;4.636;2023-04-24T08:28:05;100373.16;;;8.94;83.82
79586;BME280;69054;50.866;4.636;2023-04-24T08:30:31;100369.25;;;8.60;83.68
79586;BME280;69054;50.866;4.636;2023-04-24T08:32:57;100369.38;;;8.52;83.87
79586;BME280;69054;50.866;4.636;2023-04-24T08:35:22;100379.47;;;8.58;86.06
79586;BME280;69054;50.866;4.636;2023-04-24T08:37:48;100388.66;;;8.72;85.00
79586;BME280;69054;50.866;4.636;2023-04-24T08:40:15;100401.06;;;8.96;84.18
79586;BME280;69054;50.866;4.636;2023-04-24T08:42:42;100388.66;;;8.94;82.15
79586;BME280;69054;50.866;4.636;2023-04-24T08:45:09;100392.31;;;9.01;82.83
79586;BME280;69054;50.866;4.636;2023-04-24T08:47:35;100397.59;;;10.29;76.78
79586;BME280;69054;50.866;4.636;2023-04-24T08:50:03;100395.94;;;11.23;71.88
79586;BME280;69054;50.866;4.636;2023-04-24T08:52:32;100404.47;;;12.27;70.38
79586;BME280;69054;50.866;4.636;2023-04-24T08:54:59;100405.06;;;12.81;69.33
79586;BME280;69054;50.866;4.636;2023-04-24T08:57:25;100407.72;;;12.04;68.15
79586;BME280;69054;50.866;4.636;2023-04-24T08:59:52;100414.44;;;10.94;72.82
79586;BME280;69054;50.866;4.636;2023-04-24T09:02:18;100420.84;;;10.11;75.91
79586;BME280;69054;50.866;4.636;2023-04-24T09:04:44;100415.69;;;9.38;76.24
79586;BME280;69054;50.866;4.636;2023-04-24T09:07:12;100426.91;;;9.22;78.62
79586;BME280;69054;50.866;4.636;2023-04-24T09:09:38;100430.31;;;9.31;77.65
79586;BME280;69054;50.866;4.636;2023-04-24T09:12:04;100433.06;;;9.59;75.38
79586;BME280;69054;50.866;4.636;2023-04-24T09:14:30;100435.09;;;9.79;77.86
79586;BME280;69054;50.866;4.636;2023-04-24T09:16:57;100438.03;;;10.40;72.97
79586;BME280;69054;50.866;4.636;2023-04-24T09:19:22;100434.03;;;11.71;68.71
79586;BME280;69054;50.866;4.636;2023-04-24T09:21:48;100440.19;;;12.59;64.95
79586;BME280;69054;50.866;4.636;2023-04-24T09:24:18;100441.44;;;13.02;64.03
79586;BME280;69054;50.866;4.636;2023-04-24T09:26:45;100444.16;;;13.40;61.66
79586;BME280;69054;50.866;4.636;2023-04-24T09:29:15;100443.88;;;13.99;62.74
79586;BME280;69054;50.866;4.636;2023-04-24T09:31:42;100453.53;;;13.83;60.83
79586;BME280;69054;50.866;4.636;2023-04-24T09:34:08;100453.78;;;14.18;61.63
79586;BME280;69054;50.866;4.636;2023-04-24T09:36:38;100455.13;;;12.63;61.41
79586;BME280;69054;50.866;4.636;2023-04-24T09:39:06;100448.38;;;11.40;63.20
79586;BME280;69054;50.866;4.636;2023-04-24T09:41:33;100459.75;;;10.69;67.64
79586;BME280;69054;50.866;4.636;2023-04-24T09:44:13;100467.41;;;10.38;65.88
79586;BME280;69054;50.866;4.636;2023-04-24T09:46:41;100474.84;;;10.23;66.82
79586;BME280;69054;50.866;4.636;2023-04-24T09:49:14;100476.06;;;10.13;67.99
79586;BME280;69054;50.866;4.636;2023-04-24T09:51:40;100475.63;;;10.93;65.68
79586;BME280;69054;50.866;4.636;2023-04-24T09:54:17;100468.63;;;12.58;63.26
79586;BME280;69054;50.866;4.636;2023-04-24T09:56:44;100463.50;;;11.76;61.33
79586;BME280;69054;50.866;4.636;2023-04-24T09:59:10;100482.84;;;11.14;63.72
79586;BME280;69054;50.866;4.636;2023-04-24T10:01:36;100487.19;;;10.89;67.39
79586;BME280;69054;50.866;4.636;2023-04-24T10:04:03;100492.72;;;11.15;65.93
79586;BME280;69054;50.866;4.636;2023-04-24T10:06:36;100492.75;;;12.29;59.96
79586;BME280;69054;50.866;4.636;2023-04-24T10:09:02;100497.97;;;13.03;56.76
79586;BME280;69054;50.866;4.636;2023-04-24T10:11:29;100498.56;;;12.66;59.70
79586;BME280;69054;50.866;4.636;2023-04-24T10:13:55;100506.44;;;12.42;60.45
79586;BME280;69054;50.866;4.636;2023-04-24T10:16:23;100504.06;;;12.59;57.74
79586;BME280;69054;50.866;4.636;2023-04-24T10:18:49;100505.09;;;12.72;57.23
79586;BME280;69054;50.866;4.636;2023-04-24T10:21:15;100508.72;;;12.52;58.12
79586;BME280;69054;50.866;4.636;2023-04-24T10:23:41;100503.31;;;12.12;58.38
79586;BME280;69054;50.866;4.636;2023-04-24T10:26:09;100514.28;;;12.12;60.66
79586;BME280;69054;50.866;4.636;2023-04-24T10:28:36;100508.75;;;12.32;59.89
79586;BME280;69054;50.866;4.636;2023-04-24T10:31:01;100510.25;;;12.35;59.02
79586;BME280;69054;50.866;4.636;2023-04-24T10:33:28;100524.38;;;12.32;61.66
79586;BME280;69054;50.866;4.636;2023-04-24T10:35:55;100515.25;;;12.51;59.00
79586;BME280;69054;50.866;4.636;2023-04-24T10:38:25;100521.63;;;12.32;57.11
79586;BME280;69054;50.866;4.636;2023-04-24T10:40:57;100517.25;;;12.17;58.58
79586;BME280;69054;50.866;4.636;2023-04-24T10:43:23;100535.53;;;11.70;59.99
79586;BME280;69054;50.866;4.636;2023-04-24T10:46:09;100518.41;;;11.28;57.87
79586;BME280;69054;50.866;4.636;2023-04-24T10:48:42;100540.69;;;11.25;58.29
79586;BME280;69054;50.866;4.636;2023-04-24T10:51:12;100531.94;;;11.69;58.49
79586;BME280;69054;50.866;4.636;2023-04-24T10:53:38;100540.31;;;12.62;57.65
79586;BME280;69054;50.866;4.636;2023-04-24T10:56:05;100544.00;;;13.01;57.05
79586;BME280;69054;50.866;4.636;2023-04-24T10:58:42;100541.44;;;12.27;55.26
79586;BME280;69054;50.866;4.636;2023-04-24T11:01:25;100544.59;;;11.77;58.50
79586;BME280;69054;50.866;4.636;2023-04-24T11:03:55;100546.63;;;11.35;59.05
79586;BME280;69054;50.866;4.636;2023-04-24T11:06:35;100544.53;;;11.37;57.47
79586;BME280;69054;50.866;4.636;2023-04-24T11:09:06;100559.91;;;12.72;56.86
79586;BME280;69054;50.866;4.636;2023-04-24T11:11:33;100557.72;;;14.72;50.87
79586;BME280;69054;50.866;4.636;2023-04-24T11:19:02;100559.69;;;14.21;51.58
79586;BME280;69054;50.866;4.636;2023-04-24T11:21:39;100563.81;;;13.80;52.35
79586;BME280;69054;50.866;4.636;2023-04-24T11:24:48;100574.34;;;13.06;55.79
79586;BME280;69054;50.866;4.636;2023-04-24T11:27:16;100569.91;;;12.13;57.37
79586;BME280;69054;50.866;4.636;2023-04-24T11:32:33;100577.00;;;12.67;57.17
79586;BME280;69054;50.866;4.636;2023-04-24T11:37:57;100586.59;;;13.87;53.38
79586;BME280;69054;50.866;4.636;2023-04-24T11:40:24;100582.66;;;14.01;49.49
79586;BME280;69054;50.866;4.636;2023-04-24T11:42:51;100582.88;;;13.75;51.78
79586;BME280;69054;50.866;4.636;2023-04-24T11:45:22;100591.75;;;14.52;49.44
79586;BME280;69054;50.866;4.636;2023-04-24T11:47:47;100597.75;;;14.68;50.39
79586;BME280;69054;50.866;4.636;2023-04-24T11:50:14;100592.94;;;14.13;51.63
79586;BME280;69054;50.866;4.636;2023-04-24T11:52:42;100588.97;;;13.77;51.71
79586;BME280;69054;50.866;4.636;2023-04-24T11:55:24;100597.16;;;13.00;53.40
79586;BME280;69054;50.866;4.636;2023-04-24T11:57:56;100601.00;;;14.58;51.07
79586;BME280;69054;50.866;4.636;2023-04-24T12:00:23;100599.34;;;14.76;50.41
79586;BME280;69054;50.866;4.636;2023-04-24T12:02:49;100595.38;;;14.71;49.31
79586;BME280;69054;50.866;4.636;2023-04-24T12:05:27;100607.38;;;13.76;50.52
79586;BME280;69054;50.866;4.636;2023-04-24T12:07:53;100597.16;;;13.00;52.24
79586;BME280;69054;50.866;4.636;2023-04-24T12:10:23;100606.28;;;12.80;54.62
79586;BME280;69054;50.866;4.636;2023-04-24T12:12:49;100592.44;;;12.08;55.24
79586;BME280;69054;50.866;4.636;2023-04-24T12:15:17;100598.16;;;12.27;56.57
79586;BME280;69054;50.866;4.636;2023-04-24T12:17:43;100606.13;;;12.62;55.45
79586;BME280;69054;50.866;4.636;2023-04-24T12:20:09;100601.50;;;12.35;53.53
79586;BME280;69054;50.866;4.636;2023-04-24T12:22:51;100604.97;;;12.96;52.48
79586;BME280;69054;50.866;4.636;2023-04-24T12:25:20;100609.38;;;13.04;54.19
79586;BME280;69054;50.866;4.636;2023-04-24T12:27:46;100603.50;;;13.84;51.49
79586;BME280;69054;50.866;4.636;2023-04-24T12:30:17;100603.06;;;13.48;52.32
79586;BME280;69054;50.866;4.636;2023-04-24T12:33:02;100610.28;;;12.84;53.00
79586;BME280;69054;50.866;4.636;2023-04-24T12:35:30;100613.22;;;12.89;54.79
79586;BME280;69054;50.866;4.636;2023-04-24T12:38:08;100607.22;;;13.12;52.95
79586;BME280;69054;50.866;4.636;2023-04-24T12:40:34;100606.50;;;14.58;48.55
79586;BME280;69054;50.866;4.636;2023-04-24T12:42:59;100614.59;;;15.46;45.83
79586;BME280;69054;50.866;4.636;2023-04-24T12:45:25;100611.88;;;14.71;45.44
79586;BME280;69054;50.866;4.636;2023-04-24T12:47:52;100612.13;;;14.45;46.80
79586;BME280;69054;50.866;4.636;2023-04-24T12:50:18;100606.19;;;13.91;49.06
79586;BME280;69054;50.866;4.636;2023-04-24T12:52:44;100610.88;;;13.52;49.43
79586;BME280;69054;50.866;4.636;2023-04-24T12:55:09;100613.78;;;13.63;50.35
79586;BME280;69054;50.866;4.636;2023-04-24T12:57:36;100623.84;;;13.24;50.02
79586;BME280;69054;50.866;4.636;2023-04-24T13:00:03;100612.78;;;13.51;50.42
79586;BME280;69054;50.866;4.636;2023-04-24T13:02:30;100611.09;;;15.20;44.82
79586;BME280;69054;50.866;4.636;2023-04-24T13:04:57;100615.28;;;15.90;43.48
79586;BME280;69054;50.866;4.636;2023-04-24T13:07:23;100612.28;;;16.93;42.56
79586;BME280;69054;50.866;4.636;2023-04-24T13:09:49;100617.28;;;16.72;42.18